Time;durP1;ratioP1;P1;durP2;ratioP2;P2;SDS_P1;SDS_P2;PMS_P1;PMS_P2;Temp;Humidity;BMP_temperature;BMP_pressure;BME280_temperature;BME280_humidity;BME280_pressure;Samples;Min_cycle;Max_cycle;Signal;HPM_P1;HPM_P2
2020/12/12 00:01:57;;;;;;;17.23;8.53;;;;;;;-0.52;100.00;96532.16;1766512;80;21007;-76
2020/12/12 00:04:24;;;;;;;18.60;9.27;;;;;;;-0.54;100.00;96536.07;1782380;79;21056;-76
2020/12/12 00:06:51;;;;;;;19.80;10.00;;;;;;;-0.53;100.00;96533.88;1766530;81;20943;-76
2020/12/12 00:09:18;;;;;;;20.40;9.10;;;;;;;-0.52;100.00;96531.70;1782381;80;21815;-76
2020/12/12 00:11:46;;;;;;;18.93;9.63;;;;;;;-0.54;100.00;96525.03;1766433;81;21031;-76
2020/12/12 00:14:13;;;;;;;18.33;10.57;;;;;;;-0.55;100.00;96528.48;1782338;80;21044;-76
2020/12/12 00:16:40;;;;;;;20.53;10.03;;;;;;;-0.54;100.00;96521.20;1766485;80;20932;-76
2020/12/12 00:19:08;;;;;;;18.13;9.67;;;;;;;-0.54;100.00;96528.86;1782371;80;21462;-75
2020/12/12 00:21:35;;;;;;;17.60;8.83;;;;;;;-0.54;100.00;96526.30;1765845;80;21442;-76
2020/12/12 00:24:02;;;;;;;18.53;9.20;;;;;;;-0.58;100.00;96521.38;1782341;80;21331;-76
2020/12/12 00:26:29;;;;;;;19.83;10.50;;;;;;;-0.58;100.00;96521.79;1766576;81;20999;-75
2020/12/12 00:28:56;;;;;;;17.50;8.70;;;;;;;-0.57;100.00;96528.13;1782306;80;21092;-75
2020/12/12 00:31:23;;;;;;;19.53;9.63;;;;;;;-0.57;100.00;96531.13;1766442;80;20933;-75
2020/12/12 00:33:50;;;;;;;18.87;9.33;;;;;;;-0.58;100.00;96523.06;1782361;80;21194;-76
2020/12/12 00:36:18;;;;;;;18.80;9.40;;;;;;;-0.56;100.00;96521.28;1785068;79;20979;-76
2020/12/12 00:38:45;;;;;;;18.97;8.77;;;;;;;-0.54;100.00;96528.86;1792356;80;21041;-76
2020/12/12 00:41:12;;;;;;;16.73;8.80;;;;;;;-0.55;99.70;96521.66;1792319;80;20922;-76
2020/12/12 00:43:39;;;;;;;20.30;9.03;;;;;;;-0.54;99.86;96528.86;1792451;80;21117;-75
2020/12/12 00:46:06;;;;;;;18.93;10.07;;;;;;;-0.55;99.94;96525.48;1792401;80;21913;-76
2020/12/12 00:48:34;;;;;;;19.77;9.90;;;;;;;-0.54;99.99;96525.85;1792284;80;20954;-75
2020/12/12 00:51:01;;;;;;;20.97;10.10;;;;;;;-0.51;100.00;96528.23;1792465;79;20891;-76
2020/12/12 00:53:28;;;;;;;16.00;8.87;;;;;;;-0.52;99.85;96526.59;1792293;80;20947;-75
2020/12/12 00:55:56;;;;;;;21.10;9.83;;;;;;;-0.54;99.87;96527.13;1792360;80;21014;-75
2020/12/12 00:58:23;;;;;;;21.77;11.07;;;;;;;-0.57;99.93;96520.91;1792334;80;21140;-75
2020/12/12 01:00:50;;;;;;;21.00;11.97;;;;;;;-0.59;100.00;96532.91;1792268;80;21018;-75
2020/12/12 01:03:17;;;;;;;21.53;11.23;;;;;;;-0.62;100.00;96531.35;1792405;79;20974;-75
2020/12/12 01:05:45;;;;;;;22.07;11.30;;;;;;;-0.61;100.00;96525.34;1792414;80;20923;-75
2020/12/12 01:08:12;;;;;;;22.90;10.83;;;;;;;-0.58;100.00;96521.79;1792455;79;20931;-76
2020/12/12 01:10:40;;;;;;;22.60;11.17;;;;;;;-0.55;100.00;96524.20;1792328;80;21105;-75
2020/12/12 01:13:07;;;;;;;21.83;12.23;;;;;;;-0.53;100.00;96518.56;1792289;80;20955;-75
2020/12/12 01:15:34;;;;;;;24.10;13.33;;;;;;;-0.52;100.00;96530.88;1792317;80;20950;-75
2020/12/12 01:18:02;;;;;;;21.70;11.27;;;;;;;-0.55;100.00;96528.04;1792310;80;20946;-76
2020/12/12 01:20:31;;;;;;;19.57;10.43;;;;;;;-0.57;100.00;96520.91;1792450;80;20887;-76
2020/12/12 01:22:59;;;;;;;20.63;10.00;;;;;;;-0.59;100.00;96519.69;1792430;80;21792;-75
2020/12/12 01:25:26;;;;;;;20.90;10.97;;;;;;;-0.57;100.00;96518.36;1792375;80;21045;-75
2020/12/12 01:27:53;;;;;;;22.17;11.47;;;;;;;-0.58;100.00;96515.41;1792265;80;20994;-76
2020/12/12 01:30:21;;;;;;;21.00;10.97;;;;;;;-0.62;100.00;96520.31;1792386;80;20951;-74
2020/12/12 01:32:48;;;;;;;20.10;10.63;;;;;;;-0.60;100.00;96510.84;1792398;80;20971;-75
2020/12/12 01:35:15;;;;;;;24.20;13.73;;;;;;;-0.59;100.00;96512.48;1792701;80;22140;-75
2020/12/12 01:37:43;;;;;;;20.90;10.37;;;;;;;-0.57;100.00;96505.59;1795349;80;20946;-76
2020/12/12 01:40:11;;;;;;;19.63;10.00;;;;;;;-0.57;100.00;96511.52;1795373;80;20875;-76
2020/12/12 01:42:38;;;;;;;23.30;10.87;;;;;;;-0.54;100.00;96511.80;1795358;80;20926;-75
2020/12/12 01:45:07;;;;;;;21.30;10.73;;;;;;;-0.54;100.00;96507.97;1795424;80;21033;-75
2020/12/12 01:47:36;;;;;;;19.60;10.70;;;;;;;-0.54;100.00;96520.75;1795390;79;22285;-75
2020/12/12 01:50:05;;;;;;;20.80;10.37;;;;;;;-0.52;100.00;96515.55;1795372;79;20903;-75
2020/12/12 01:52:32;;;;;;;21.73;11.53;;;;;;;-0.56;100.00;96509.80;1795384;80;20918;-75
2020/12/12 01:55:00;;;;;;;23.80;10.83;;;;;;;-0.55;100.00;96515.27;1795392;80;21009;-75
2020/12/12 01:57:27;;;;;;;22.57;13.07;;;;;;;-0.55;100.00;96519.09;1795455;80;21117;-74
2020/12/12 01:59:54;;;;;;;24.53;12.07;;;;;;;-0.55;100.00;96519.55;1795464;80;20938;-75
2020/12/12 02:02:21;;;;;;;24.63;14.30;;;;;;;-0.55;100.00;96520.83;1795386;80;21065;-75
2020/12/12 02:04:55;;;;;;;21.53;13.07;;;;;;;-0.58;100.00;96516.27;1795378;80;20875;-76
2020/12/12 02:07:22;;;;;;;21.90;10.47;;;;;;;-0.59;100.00;96507.38;1795328;80;21318;-75
2020/12/12 02:09:49;;;;;;;21.80;12.70;;;;;;;-0.60;100.00;96512.94;1795389;80;20941;-75
2020/12/12 02:12:17;;;;;;;25.17;14.20;;;;;;;-0.58;100.00;96512.85;1795375;80;21727;-75
2020/12/12 02:14:44;;;;;;;22.47;11.77;;;;;;;-0.57;100.00;96513.25;1795284;80;20923;-75
2020/12/12 02:17:11;;;;;;;19.77;10.03;;;;;;;-0.54;100.00;96505.88;1795365;80;21345;-76
2020/12/12 02:19:39;;;;;;;20.10;10.07;;;;;;;-0.53;100.00;96507.06;1795318;80;20978;-76
2020/12/12 02:22:07;;;;;;;22.40;10.97;;;;;;;-0.52;100.00;96507.89;1795352;80;21554;-75
2020/12/12 02:24:34;;;;;;;23.97;13.03;;;;;;;-0.49;100.00;96511.58;1795466;80;21139;-76
2020/12/12 02:27:06;;;;;;;20.77;10.53;;;;;;;-0.47;100.00;96510.59;1795290;80;20927;-76
2020/12/12 02:29:45;;;;;;;23.27;12.57;;;;;;;-0.46;100.00;96504.56;1795354;80;21298;-76
2020/12/12 02:32:10;;;;;;;21.50;11.43;;;;;;;-0.42;100.00;96503.94;1795046;80;21006;-77
2020/12/12 02:34:37;;;;;;;22.03;11.13;;;;;;;-0.44;100.00;96500.20;1795317;80;21516;-76
2020/12/12 02:37:04;;;;;;;20.40;11.67;;;;;;;-0.43;100.00;96512.06;1795277;79;21321;-77
2020/12/12 02:39:32;;;;;;;22.23;12.77;;;;;;;-0.46;100.00;96512.23;1795292;80;21358;-76
2020/12/12 02:41:59;;;;;;;25.67;14.60;;;;;;;-0.48;100.00;96500.45;1795309;79;21006;-77
2020/12/12 02:44:26;;;;;;;21.17;10.90;;;;;;;-0.47;100.00;96502.09;1795339;79;21452;-74
2020/12/12 02:49:33;;;;;;;21.10;11.87;;;;;;;-0.46;100.00;96494.80;1811300;77;22727;-76
2020/12/12 02:52:01;;;;;;;25.80;14.30;;;;;;;-0.50;100.00;96499.69;1802928;79;21383;-77
2020/12/12 02:54:29;;;;;;;24.93;14.47;;;;;;;-0.50;100.00;96498.41;1802885;78;21363;-76
2020/12/12 02:56:57;;;;;;;22.93;12.63;;;;;;;-0.51;100.00;96495.48;1802812;79;21025;-76
2020/12/12 02:59:24;;;;;;;22.80;13.20;;;;;;;-0.49;100.00;96484.31;1802830;78;20925;-76
2020/12/12 03:01:51;;;;;;;22.70;11.80;;;;;;;-0.49;100.00;96493.70;1802858;78;20989;-76
2020/12/12 03:04:19;;;;;;;22.43;12.23;;;;;;;-0.54;100.00;96497.76;1802910;79;20965;-76
2020/12/12 03:06:48;;;;;;;23.90;12.77;;;;;;;-0.55;100.00;96494.02;1802788;79;21387;-76
2020/12/12 03:09:15;;;;;;;21.50;11.73;;;;;;;-0.57;100.00;96491.55;1802785;79;21277;-76
2020/12/12 03:11:42;;;;;;;21.43;11.87;;;;;;;-0.58;100.00;96491.14;1802878;79;21300;-76
2020/12/12 03:14:10;;;;;;;22.30;12.87;;;;;;;-0.59;100.00;96500.54;1802810;78;21419;-76
2020/12/12 03:16:37;;;;;;;22.13;12.20;;;;;;;-0.61;100.00;96506.19;1802904;79;21316;-76
2020/12/12 03:19:05;;;;;;;20.00;11.53;;;;;;;-0.61;100.00;96501.53;1802960;78;21245;-76
2020/12/12 03:21:33;;;;;;;23.70;12.93;;;;;;;-0.61;100.00;96498.98;1802746;78;20922;-76
2020/12/12 03:24:00;;;;;;;20.67;10.87;;;;;;;-0.62;100.00;96503.72;1802845;78;20997;-76
2020/12/12 03:26:27;;;;;;;22.70;11.17;;;;;;;-0.62;100.00;96485.39;1802916;79;21017;-76
2020/12/12 03:28:54;;;;;;;19.90;9.77;;;;;;;-0.62;100.00;96495.60;1802833;78;20913;-76
2020/12/12 03:31:22;;;;;;;23.30;13.90;;;;;;;-0.62;100.00;96503.72;1802959;78;20949;-76
2020/12/12 03:33:49;;;;;;;22.37;12.27;;;;;;;-0.62;100.00;96495.60;1802855;79;20933;-77
2020/12/12 03:36:16;;;;;;;21.60;11.10;;;;;;;-0.63;100.00;96503.34;1802835;78;20871;-76
2020/12/12 03:38:43;;;;;;;21.43;11.73;;;;;;;-0.64;100.00;96492.31;1802838;78;20914;-76
2020/12/12 03:41:12;;;;;;;20.73;11.80;;;;;;;-0.65;100.00;96488.56;1802795;78;20977;-76
2020/12/12 03:43:39;;;;;;;22.73;11.60;;;;;;;-0.66;100.00;96494.58;1802839;79;21300;-76
2020/12/12 03:46:07;;;;;;;20.47;10.93;;;;;;;-0.69;100.00;96478.13;1802805;79;21406;-76
2020/12/12 03:48:34;;;;;;;19.30;11.40;;;;;;;-0.72;100.00;96489.78;1814193;78;20913;-76
2020/12/12 03:51:01;;;;;;;22.33;12.33;;;;;;;-0.72;100.00;96488.05;1845421;77;20904;-75
2020/12/12 03:53:29;;;;;;;23.37;13.13;;;;;;;-0.71;100.00;96490.98;1828329;77;21333;-75
2020/12/12 03:55:56;;;;;;;23.07;13.57;;;;;;;-0.70;100.00;96491.34;1845353;77;21143;-75
2020/12/12 03:58:24;;;;;;;23.33;12.83;;;;;;;-0.68;100.00;96482.32;1828383;77;20925;-75
2020/12/12 04:00:51;;;;;;;27.40;13.50;;;;;;;-0.67;100.00;96480.95;1844740;77;20924;-76
2020/12/12 04:03:18;;;;;;;24.90;12.53;;;;;;;-0.64;100.00;96482.09;1827701;78;20954;-75
2020/12/12 04:05:46;;;;;;;26.17;12.23;;;;;;;-0.58;100.00;96471.56;1844845;77;20900;-75
2020/12/12 04:08:13;;;;;;;25.60;14.77;;;;;;;-0.57;100.00;96487.72;1827737;77;21810;-75
2020/12/12 04:10:42;;;;;;;23.57;13.10;;;;;;;-0.60;100.00;96481.02;1843250;77;20947;-75
2020/12/12 04:13:09;;;;;;;27.50;13.67;;;;;;;-0.61;100.00;96477.27;1827795;78;20977;-76
2020/12/12 04:15:37;;;;;;;24.90;12.83;;;;;;;-0.63;100.00;96477.81;1844803;77;21019;-76
2020/12/12 04:18:04;;;;;;;24.70;13.33;;;;;;;-0.60;100.00;96471.25;1827814;77;20874;-77
2020/12/12 04:20:32;;;;;;;23.53;12.30;;;;;;;-0.58;100.00;96475.82;1844740;77;22231;-77
2020/12/12 04:22:59;;;;;;;26.27;14.53;;;;;;;-0.55;100.00;96470.58;1827678;78;21020;-75
2020/12/12 04:25:26;;;;;;;22.17;11.67;;;;;;;-0.54;100.00;96472.22;1844799;77;20916;-76
2020/12/12 04:27:53;;;;;;;24.20;11.60;;;;;;;-0.57;100.00;96478.32;1827653;77;21296;-76
2020/12/12 04:30:20;;;;;;;23.40;12.60;;;;;;;-0.62;100.00;96482.83;1844861;77;20967;-76
2020/12/12 04:32:47;;;;;;;23.23;11.53;;;;;;;-0.65;100.00;96479.63;1827677;77;21116;-76
2020/12/12 04:35:15;;;;;;;23.67;11.87;;;;;;;-0.67;100.00;96486.52;1844615;77;21313;-76
2020/12/12 04:37:42;;;;;;;25.00;14.03;;;;;;;-0.68;100.00;96491.26;1827712;78;20901;-75
2020/12/12 04:40:10;;;;;;;23.23;12.60;;;;;;;-0.67;100.00;96487.34;1844678;77;20959;-75
2020/12/12 04:42:42;;;;;;;20.80;10.37;;;;;;;-0.66;100.00;96492.85;1827752;77;21379;-75
2020/12/12 04:45:07;;;;;;;25.23;13.23;;;;;;;-0.67;100.00;96472.47;1844611;77;21389;-75
2020/12/12 04:47:34;;;;;;;20.80;12.33;;;;;;;-0.71;100.00;96485.05;1827572;78;20933;-75
2020/12/12 04:50:03;;;;;;;23.00;12.10;;;;;;;-0.72;100.00;96484.67;1844317;76;20952;-75
2020/12/12 04:52:30;;;;;;;22.27;13.27;;;;;;;-0.71;100.00;96492.25;1802170;78;20933;-75
2020/12/12 04:55:01;;;;;;;24.03;12.57;;;;;;;-0.72;100.00;96484.67;1801924;78;20952;-75
2020/12/12 04:57:35;;;;;;;22.67;11.77;;;;;;;-0.76;100.00;96479.34;1771348;79;21371;-75
2020/12/12 05:00:11;;;;;;;20.93;11.43;;;;;;;-0.80;100.00;96482.97;1801961;79;20931;-75
2020/12/12 05:02:39;;;;;;;22.13;12.07;;;;;;;-0.83;100.00;96485.66;1801901;79;21287;-75
2020/12/12 05:05:06;;;;;;;22.10;13.03;;;;;;;-0.84;100.00;96484.84;1801938;79;20921;-77
2020/12/12 05:07:34;;;;;;;23.73;13.10;;;;;;;-0.86;100.00;96472.16;1801989;79;20920;-75
2020/12/12 05:10:01;;;;;;;24.47;13.40;;;;;;;-0.88;100.00;96484.19;1802007;79;21798;-76
2020/12/12 05:12:28;;;;;;;22.83;13.13;;;;;;;-0.86;100.00;96489.20;1801815;79;20932;-76
2020/12/12 05:14:55;;;;;;;28.63;14.33;;;;;;;-0.83;100.00;96488.22;1801944;79;20932;-76
2020/12/12 05:17:22;;;;;;;22.27;12.47;;;;;;;-0.81;100.00;96482.60;1801968;78;20912;-76
2020/12/12 05:19:50;;;;;;;21.40;12.10;;;;;;;-0.79;100.00;96499.94;1802002;79;20960;-76
2020/12/12 05:22:17;;;;;;;23.27;12.03;;;;;;;-0.76;100.00;96487.00;1801879;78;21424;-76
2020/12/12 05:24:44;;;;;;;25.50;13.37;;;;;;;-0.74;100.00;96492.88;1801881;79;21342;-76
2020/12/12 05:27:12;;;;;;;24.30;13.33;;;;;;;-0.75;100.00;96492.02;1801872;79;20924;-76
2020/12/12 05:29:39;;;;;;;24.33;12.37;;;;;;;-0.76;100.00;96491.66;1801793;78;21398;-77
2020/12/12 05:32:06;;;;;;;22.13;12.07;;;;;;;-0.78;100.00;96497.30;1801930;78;21040;-74
2020/12/12 05:34:34;;;;;;;24.93;13.40;;;;;;;-0.79;100.00;96493.09;1801888;78;21369;-75
2020/12/12 05:37:02;;;;;;;25.97;14.70;;;;;;;-0.77;100.00;96495.56;1801830;79;21011;-75
2020/12/12 05:39:29;;;;;;;23.53;13.23;;;;;;;-0.78;100.00;96502.41;1744963;79;20967;-75
2020/12/12 05:41:56;;;;;;;22.37;11.57;;;;;;;-0.76;100.00;96493.38;1801893;78;20924;-75
2020/12/12 05:44:23;;;;;;;23.83;12.40;;;;;;;-0.75;100.00;96492.47;1801990;78;20881;-75
2020/12/12 05:46:51;;;;;;;25.43;13.00;;;;;;;-0.77;100.00;96500.67;1801885;79;21402;-75
2020/12/12 05:49:18;;;;;;;21.70;12.07;;;;;;;-0.80;100.00;96502.11;1803395;78;20983;-75
2020/12/12 05:51:46;;;;;;;24.83;11.53;;;;;;;-0.80;100.00;96502.11;1776087;79;20892;-75
2020/12/12 05:54:13;;;;;;;27.27;12.37;;;;;;;-0.83;100.00;96499.70;1749360;79;20888;-77
2020/12/12 05:56:44;;;;;;;23.63;13.67;;;;;;;-0.82;100.00;96495.00;1789395;78;20944;-75
2020/12/12 05:59:11;;;;;;;20.97;10.77;;;;;;;-0.81;100.00;96495.37;1745768;81;21032;-74
2020/12/12 06:01:38;;;;;;;25.27;13.47;;;;;;;-0.85;100.00;96491.67;1773138;81;20952;-77
2020/12/12 06:04:12;;;;;;;21.87;11.67;;;;;;;-0.86;100.00;96497.69;1771747;79;21435;-76
2020/12/12 06:06:45;;;;;;;19.67;11.00;;;;;;;-0.82;100.00;96501.38;1744964;81;21397;-75
2020/12/12 06:09:14;;;;;;;21.37;11.13;;;;;;;-0.79;100.00;96501.20;1773162;79;21331;-75
2020/12/12 06:11:45;;;;;;;22.97;11.73;;;;;;;-0.76;100.00;96507.42;1773163;81;21196;-75
2020/12/12 06:14:13;;;;;;;19.30;10.13;;;;;;;-0.76;100.00;96499.31;1773146;81;21326;-75
2020/12/12 06:16:41;;;;;;;20.33;10.47;;;;;;;-0.79;100.00;96484.16;1773155;81;21410;-77
2020/12/12 06:19:11;;;;;;;25.23;11.10;;;;;;;-0.81;100.00;96503.84;1773141;81;21019;-76
2020/12/12 06:21:47;;;;;;;22.67;10.73;;;;;;;-0.83;100.00;96492.87;1773178;79;21051;-76
2020/12/12 06:24:18;;;;;;;22.07;11.40;;;;;;;-0.82;100.00;96510.31;1773092;79;21199;-75
2020/12/12 06:27:04;;;;;;;19.30;10.43;;;;;;;-0.82;100.00;96511.14;1773132;81;20936;-77
2020/12/12 06:29:36;;;;;;;20.00;10.70;;;;;;;-0.82;100.00;96509.86;1773203;79;20900;-76
2020/12/12 06:32:03;;;;;;;22.10;9.57;;;;;;;-0.79;100.00;96516.08;1770584;81;22088;-76
2020/12/12 06:34:45;;;;;;;19.40;9.23;;;;;;;-0.78;100.00;96519.45;1773335;81;20885;-76
2020/12/12 06:37:37;;;;;;;16.87;8.60;;;;;;;-0.77;100.00;96510.88;1773216;79;21345;-76
2020/12/12 06:40:14;;;;;;;20.97;10.07;;;;;;;-0.76;100.00;96510.80;1773153;81;20928;-77
2020/12/12 06:42:43;;;;;;;17.07;8.53;;;;;;;-0.78;100.00;96515.16;1773273;79;20951;-75
2020/12/12 06:45:22;;;;;;;22.17;10.00;;;;;;;-0.78;100.00;96519.45;1782110;79;21421;-75
2020/12/12 06:47:53;;;;;;;17.93;9.20;;;;;;;-0.77;100.00;96515.98;1804971;79;21393;-76
2020/12/12 06:50:26;;;;;;;18.90;9.27;;;;;;;-0.78;100.00;96508.78;1788330;79;21381;-75
2020/12/12 06:52:53;;;;;;;23.93;10.87;;;;;;;-0.78;100.00;96511.79;1771252;79;21051;-75
2020/12/12 06:55:22;;;;;;;21.27;9.50;;;;;;;-0.79;100.00;96509.69;1770288;80;20984;-75
2020/12/12 06:57:55;;;;;;;18.30;8.87;;;;;;;-0.78;100.00;96524.55;1770070;80;21412;-75
2020/12/12 07:00:30;;;;;;;18.40;8.70;;;;;;;-0.77;100.00;96520.64;1786177;78;21516;-75
2020/12/12 07:03:01;;;;;;;20.67;10.30;;;;;;;-0.75;100.00;96527.77;1770572;79;21408;-75
2020/12/12 07:05:31;;;;;;;16.60;9.03;;;;;;;-0.73;100.00;96523.88;1781093;78;21388;-75
2020/12/12 07:08:04;;;;;;;18.50;10.13;;;;;;;-0.69;100.00;96511.31;1801839;78;21102;-76
2020/12/12 07:10:32;;;;;;;20.12;9.20;;;;;;;-0.70;100.00;96514.33;1801800;79;21145;-76
2020/12/12 07:13:00;;;;;;;16.47;8.53;;;;;;;-0.72;100.00;96529.36;1783108;78;21121;-75
2020/12/12 07:15:32;;;;;;;19.03;9.83;;;;;;;-0.75;100.00;96520.56;1790524;79;21200;-76
2020/12/12 07:18:08;;;;;;;17.23;8.70;;;;;;;-0.75;100.00;96530.77;1778489;79;21390;-75
2020/12/12 07:20:36;;;;;;;19.23;10.30;;;;;;;-0.71;100.00;96520.79;1770186;81;20948;-76
2020/12/12 07:23:04;;;;;;;19.37;10.10;;;;;;;-0.69;100.00;96532.56;1775025;79;21385;-76
2020/12/12 07:25:32;;;;;;;18.67;8.57;;;;;;;-0.70;100.00;96521.98;1778673;79;21110;-76
2020/12/12 07:28:01;;;;;;;17.70;8.53;;;;;;;-0.69;100.00;96518.98;1770118;80;21192;-76
2020/12/12 07:30:30;;;;;;;17.83;8.77;;;;;;;-0.71;100.00;96502.92;1770007;79;21015;-75
2020/12/12 07:32:57;;;;;;;18.83;9.97;;;;;;;-0.73;100.00;96522.61;1770104;80;21022;-75
2020/12/12 07:35:24;;;;;;;20.37;9.23;;;;;;;-0.74;100.00;96520.51;1771335;78;20905;-75
2020/12/12 07:37:53;;;;;;;19.30;10.33;;;;;;;-0.76;100.00;96538.06;1800065;78;21045;-75
2020/12/12 07:40:20;;;;;;;21.13;10.10;;;;;;;-0.79;100.00;96523.73;1757467;79;21757;-75
2020/12/12 07:42:50;;;;;;;23.07;10.20;;;;;;;-0.78;100.00;96520.27;1775088;78;21395;-76
2020/12/12 07:46:08;;;;;;;18.53;9.07;;;;;;;-0.77;100.00;96513.44;1769730;79;21144;-75
2020/12/12 07:47:48;;;;;;;17.07;8.43;;;;;;;-0.75;100.00;96509.07;1741714;80;21205;-75
2020/12/12 07:50:16;;;;;;;19.63;9.03;;;;;;;-0.76;100.00;96509.98;1780418;80;21160;-75
2020/12/12 07:52:43;;;;;;;21.90;10.63;;;;;;;-0.79;100.00;96504.59;1786273;80;21374;-76
2020/12/12 07:55:13;;;;;;;21.23;10.07;;;;;;;-0.80;100.00;96522.09;1786274;80;21148;-75
2020/12/12 07:57:45;;;;;;;19.13;9.60;;;;;;;-0.79;100.00;96519.08;1738287;80;21571;-76
2020/12/12 08:00:12;;;;;;;25.40;9.57;;;;;;;-0.78;100.00;96524.55;1715118;78;21149;-75
2020/12/12 08:02:40;;;;;;;20.90;11.23;;;;;;;-0.76;100.00;96520.19;1786653;79;21201;-76
2020/12/12 08:05:07;;;;;;;18.60;9.20;;;;;;;-0.76;100.00;96517.18;1785201;79;21144;-76
2020/12/12 08:07:35;;;;;;;21.53;11.10;;;;;;;-0.73;100.00;96531.55;1787373;80;21364;-76
2020/12/12 08:10:04;;;;;;;21.17;9.93;;;;;;;-0.73;100.00;96525.98;1764966;81;21139;-75
2020/12/12 08:12:33;;;;;;;22.13;9.70;;;;;;;-0.73;100.00;96522.61;1786902;80;21145;-76
2020/12/12 08:15:19;;;;;;;19.43;10.00;;;;;;;-0.72;100.00;96521.70;1787562;79;21381;-76
2020/12/12 08:17:44;;;;;;;22.37;11.10;;;;;;;-0.71;100.00;96524.63;1788019;79;21797;-74
2020/12/12 08:20:24;;;;;;;23.40;10.50;;;;;;;-0.71;100.00;96524.63;1788611;78;21409;-74
2020/12/12 08:22:48;;;;;;;23.37;10.90;;;;;;;-0.72;100.00;96514.86;1814313;78;21127;-76
2020/12/12 08:25:15;;;;;;;19.80;9.40;;;;;;;-0.71;100.00;96524.17;1791517;80;21077;-75
2020/12/12 08:27:42;;;;;;;23.80;11.37;;;;;;;-0.70;100.00;96525.81;1770567;79;21356;-74
2020/12/12 08:30:10;;;;;;;22.93;11.20;;;;;;;-0.69;100.00;96515.97;1787645;80;21714;-75
2020/12/12 08:32:46;;;;;;;24.33;12.03;;;;;;;-0.68;100.00;96516.80;1787436;79;21070;-74
2020/12/12 08:35:18;;;;;;;23.93;11.20;;;;;;;-0.67;100.00;96514.61;1787548;80;20916;-75
2020/12/12 08:38:06;;;;;;;21.73;12.33;;;;;;;-0.65;100.00;96516.66;1787581;79;21433;-75
2020/12/12 08:40:44;;;;;;;21.40;10.97;;;;;;;-0.63;100.00;96519.95;1787359;79;21075;-78
2020/12/12 08:43:12;;;;;;;22.50;11.50;;;;;;;-0.67;100.00;96525.64;1787669;79;21628;-78
2020/12/12 08:45:56;;;;;;;25.90;14.00;;;;;;;-0.68;100.00;96523.17;1814192;77;21095;-75
2020/12/12 08:48:36;;;;;;;24.33;13.23;;;;;;;-0.63;100.00;96527.61;1802876;78;21063;-77
2020/12/12 08:51:05;;;;;;;25.10;14.47;;;;;;;-0.60;100.00;96526.16;1808872;78;20918;-76
2020/12/12 08:53:41;;;;;;;25.73;13.30;;;;;;;-0.58;100.00;96529.45;1851016;77;21121;-81
2020/12/12 08:56:25;;;;;;;32.90;16.53;;;;;;;-0.58;100.00;96532.86;1840284;76;21784;-75
2020/12/12 08:59:02;;;;;;;31.87;16.27;;;;;;;-0.55;100.00;96525.94;1856135;77;21110;-75
2020/12/12 09:01:42;;;;;;;20.30;10.63;;;;;;;-0.55;100.00;96525.48;1842195;77;21134;-75
2020/12/12 09:04:15;;;;;;;19.53;10.50;;;;;;;-0.53;100.00;96530.05;1856163;77;21016;-76
2020/12/12 09:06:58;;;;;;;20.23;9.85;;;;;;;-0.55;100.00;96524.20;1848792;77;21173;-77
2020/12/12 09:09:27;;;;;;;17.85;8.78;;;;;;;-0.54;100.00;96518.64;1852941;77;22541;-75
2020/12/12 09:12:02;;;;;;;16.30;8.17;;;;;;;-0.57;100.00;96515.80;1863497;77;21047;-76
2020/12/12 09:14:38;;;;;;;15.97;8.60;;;;;;;-0.57;99.97;96509.42;1818418;78;21013;-79
2020/12/12 09:17:08;;;;;;;18.30;8.60;;;;;;;-0.56;100.00;96521.28;1854733;77;21034;-79
2020/12/12 09:19:37;;;;;;;23.90;10.63;;;;;;;-0.55;100.00;96512.72;1847235;77;20960;-75
2020/12/12 09:22:06;;;;;;;21.17;9.87;;;;;;;-0.55;100.00;96511.44;1853641;77;21268;-81
2020/12/12 09:24:33;;;;;;;21.03;10.00;;;;;;;-0.55;100.00;96503.78;1860684;77;20940;-79
2020/12/12 09:27:00;;;;;;;22.80;10.67;;;;;;;-0.53;100.00;96503.23;1856440;77;21083;-76
2020/12/12 09:29:27;;;;;;;22.73;9.77;;;;;;;-0.53;100.00;96490.47;1814934;78;21136;-78
2020/12/12 09:31:55;;;;;;;21.40;10.67;;;;;;;-0.50;100.00;96500.96;1820793;78;21537;-73
2020/12/12 09:34:24;;;;;;;20.03;10.37;;;;;;;-0.49;100.00;96493.25;1853929;76;21341;-81
2020/12/12 09:36:55;;;;;;;24.37;11.83;;;;;;;-0.48;100.00;96502.55;1857518;77;21150;-79
2020/12/12 09:39:24;;;;;;;23.23;10.87;;;;;;;-0.49;100.00;96500.91;1818542;78;21262;-81
2020/12/12 09:41:57;;;;;;;22.33;10.37;;;;;;;-0.45;100.00;96499.83;1850407;76;21030;-80
2020/12/12 09:44:26;;;;;;;21.00;8.98;;;;;;;-0.45;99.85;96496.45;1835141;76;21106;-83
2020/12/12 09:46:54;;;;;;;19.37;8.90;;;;;;;-0.46;99.70;96494.80;1841518;77;22006;-84
2020/12/12 09:49:22;;;;;;;21.53;11.40;;;;;;;-0.47;99.62;96501.64;1848780;77;21288;-82
2020/12/12 09:51:49;;;;;;;19.70;10.30;;;;;;;-0.48;99.68;96496.63;1846302;77;21087;-82
2020/12/12 09:54:16;;;;;;;25.00;12.00;;;;;;;-0.49;99.75;96490.69;1843623;77;21121;-81
2020/12/12 09:56:48;;;;;;;25.47;9.87;;;;;;;-0.47;99.73;96503.37;1843339;77;21121;-81
2020/12/12 09:59:17;;;;;;;18.67;8.80;;;;;;;-0.48;99.79;96493.61;1826623;77;21629;-82
2020/12/12 10:01:44;;;;;;;20.07;9.80;;;;;;;-0.50;99.76;96497.95;1844102;77;21526;-81
2020/12/12 10:04:12;;;;;;;22.67;10.03;;;;;;;-0.48;99.91;96487.23;1839364;76;21116;-81
2020/12/12 10:06:44;;;;;;;20.47;10.33;;;;;;;-0.48;99.80;96493.61;1850118;77;21095;-80
2020/12/12 10:09:11;;;;;;;21.20;12.17;;;;;;;-0.47;99.83;96489.33;1831810;76;21335;-80
2020/12/12 10:11:38;;;;;;;25.13;12.43;;;;;;;-0.48;99.71;96487.68;1827666;76;21424;-81
2020/12/12 10:14:06;;;;;;;24.70;11.80;;;;;;;-0.48;99.75;96470.63;1844707;77;20893;-80
2020/12/12 10:16:33;;;;;;;19.90;9.90;;;;;;;-0.47;99.86;96488.05;1849676;77;21118;-81
2020/12/12 10:19:00;;;;;;;17.30;8.73;;;;;;;-0.46;99.81;96486.69;1860370;77;21128;-81
2020/12/12 10:21:28;;;;;;;17.97;8.07;;;;;;;-0.44;99.73;96477.66;1844072;77;21006;-80
2020/12/12 10:23:55;;;;;;;20.33;9.23;;;;;;;-0.46;99.62;96464.98;1846507;77;21315;-81
2020/12/12 10:26:22;;;;;;;17.83;9.20;;;;;;;-0.48;99.52;96470.63;1861767;77;21011;-81
2020/12/12 10:28:49;;;;;;;18.67;8.33;;;;;;;-0.50;99.62;96472.87;1801259;78;21105;-80
2020/12/12 10:31:17;;;;;;;18.37;9.20;;;;;;;-0.49;99.80;96480.93;1830462;76;20903;-82
2020/12/12 10:33:44;;;;;;;19.70;9.57;;;;;;;-0.46;100.00;96471.36;1844235;77;20995;-81
2020/12/12 10:36:13;;;;;;;20.60;10.17;;;;;;;-0.46;100.00;96467.53;1835929;76;21123;-81
2020/12/12 10:38:41;;;;;;;19.10;9.40;;;;;;;-0.48;100.00;96470.63;1843233;77;21188;-82
2020/12/12 10:41:12;;;;;;;20.57;9.23;;;;;;;-0.49;100.00;96467.70;1853347;76;21111;-83
2020/12/12 10:43:39;;;;;;;16.70;9.03;;;;;;;-0.51;100.00;96472.05;1840841;77;21422;-84
2020/12/12 10:46:07;;;;;;;19.67;9.63;;;;;;;-0.51;100.00;96466.11;1830729;77;21033;-82
2020/12/12 10:48:34;;;;;;;18.07;9.13;;;;;;;-0.49;100.00;96468.98;1804561;78;21195;-83
2020/12/12 10:51:01;;;;;;;20.93;10.37;;;;;;;-0.43;100.00;96455.86;1804738;78;20979;-83
2020/12/12 10:53:29;;;;;;;18.77;10.00;;;;;;;-0.41;100.00;96465.56;1804898;79;21017;-84
2020/12/12 10:55:57;;;;;;;20.37;10.03;;;;;;;-0.39;100.00;96465.48;1804815;78;20922;-83
2020/12/12 10:58:24;;;;;;;17.97;8.67;;;;;;;-0.39;100.00;96463.75;1804285;79;20994;-83
2020/12/12 11:00:52;;;;;;;17.87;8.67;;;;;;;-0.39;99.95;96457.81;1804145;79;21381;-82
2020/12/12 11:03:19;;;;;;;18.80;9.27;;;;;;;-0.40;99.96;96460.83;1804403;78;21404;-84
2020/12/12 11:05:47;;;;;;;17.30;8.93;;;;;;;-0.36;100.00;96465.30;1802826;78;21590;-83
2020/12/12 11:08:14;;;;;;;17.83;7.90;;;;;;;-0.35;99.83;96464.39;1786158;78;21174;-83
2020/12/12 11:10:46;;;;;;;14.53;6.70;;;;;;;-0.32;99.75;96475.30;1769901;79;21118;-83
2020/12/12 11:13:16;;;;;;;12.27;6.17;;;;;;;-0.30;99.49;96461.98;1771906;78;21026;-83
2020/12/12 11:15:44;;;;;;;13.57;6.60;;;;;;;-0.31;98.74;96462.06;1784146;78;20924;-82
2020/12/12 11:18:12;;;;;;;19.63;9.03;;;;;;;-0.35;98.51;96465.22;1780780;79;21421;-82
2020/12/12 11:20:39;;;;;;;14.07;6.57;;;;;;;-0.32;98.49;96461.24;1800295;79;21572;-83
2020/12/12 11:23:06;;;;;;;22.37;8.35;;;;;;;-0.30;98.38;96464.53;1793051;78;21114;-82